Terminal Aerodrome Forecast
Issued by NWS

Home | Current Version | Previous Version | Text Only | Print | Product List | Glossary On
Versions: 1 2 3 4 5 6 7 8 9 10 11 12 13 14 15 16 17 18 19 20 21 22 23 24 25 26 27
129
FTUS46 KSEW 222114 AAA
TAFSEA
TAF AMD
KSEA 222114Z 2221/2324 29007KT P6SM SCT100 SCT200
     FM230300 23005KT P6SM SCT100 SCT200
     FM230600 16003KT P6SM BKN100 BKN200
     FM231400 16003KT P6SM BKN007 OVC080
     FM231900 22004KT P6SM SCT010 OVC080
     FM232100 25004KT P6SM SCT050 BKN080 BKN120=

USA.gov is the U.S. government's official web portal to all federal, state and local government web resources and services.